createdAt,value
2022-11-04T00:00:11.350Z,5.90
2022-11-04T00:03:18.243Z,6.70
2022-11-04T00:06:25.132Z,6.40
2022-11-04T00:09:32.275Z,6.10
2022-11-04T00:12:39.166Z,5.20
2022-11-04T00:15:46.095Z,12.20
2022-11-04T00:18:53.494Z,5.70
2022-11-04T00:22:00.387Z,5.30
2022-11-04T00:25:07.198Z,6.70
2022-11-04T00:28:14.430Z,7.00
2022-11-04T00:31:20.985Z,7.20
2022-11-04T00:34:28.091Z,4.70
2022-11-04T00:37:35.000Z,10.80
2022-11-04T00:40:41.520Z,5.90
2022-11-04T00:43:48.864Z,5.40
2022-11-04T00:46:55.366Z,7.10
2022-11-04T00:50:02.583Z,9.80
2022-11-04T00:53:10.283Z,5.90
2022-11-04T00:56:17.023Z,5.60
2022-11-04T00:59:24.413Z,5.30
2022-11-04T01:02:31.554Z,8.70
2022-11-04T01:05:38.116Z,7.00
2022-11-04T01:08:45.515Z,6.10
2022-11-04T01:11:52.761Z,8.70
2022-11-04T01:14:59.395Z,6.30
2022-11-04T01:18:06.847Z,7.00
2022-11-04T01:21:13.879Z,9.10
2022-11-04T01:24:20.639Z,7.00
2022-11-04T01:27:27.401Z,6.40
2022-11-04T01:30:34.243Z,4.90
2022-11-04T01:33:41.212Z,7.70
2022-11-04T01:36:48.124Z,5.60
2022-11-04T01:39:54.912Z,8.40
2022-11-04T01:43:02.164Z,7.00
2022-11-04T01:46:06.548Z,9.20
2022-11-04T01:49:13.974Z,7.20
2022-11-04T01:52:20.857Z,7.30
2022-11-04T01:55:27.611Z,6.70
2022-11-04T01:58:34.977Z,5.20
2022-11-04T02:01:42.109Z,8.10
2022-11-04T02:04:48.829Z,9.70
2022-11-04T02:07:56.219Z,9.80
2022-11-04T02:11:02.820Z,8.50
2022-11-04T02:14:10.124Z,10.40
2022-11-04T02:17:17.269Z,6.40
2022-11-04T02:20:23.804Z,7.10
2022-11-04T02:23:31.083Z,12.50
2022-11-04T02:26:38.212Z,9.40
2022-11-04T02:29:44.825Z,9.40
2022-11-04T02:32:51.956Z,8.40
2022-11-04T02:35:58.880Z,10.10
2022-11-04T02:39:05.786Z,8.00
2022-11-04T02:42:13.097Z,11.30
2022-11-04T02:45:20.118Z,10.30
2022-11-04T02:48:27.268Z,8.20
2022-11-04T02:51:34.257Z,10.30
2022-11-04T02:54:41.789Z,9.40
2022-11-04T02:57:48.771Z,11.30
2022-11-04T03:00:55.857Z,13.50
2022-11-04T03:04:03.265Z,15.70
2022-11-04T03:10:17.192Z,10.50
2022-11-04T03:13:24.629Z,14.60
2022-11-04T03:16:31.269Z,17.30
2022-11-04T03:19:38.555Z,15.40
2022-11-04T03:22:45.777Z,19.30
2022-11-04T03:25:52.385Z,16.20
2022-11-04T03:28:59.855Z,16.10
2022-11-04T03:32:07.301Z,13.30
2022-11-04T03:35:13.898Z,14.30
2022-11-04T03:38:21.216Z,14.70
2022-11-04T03:41:28.560Z,12.40
2022-11-04T03:44:35.170Z,11.90
2022-11-04T03:47:42.538Z,14.10
2022-11-04T03:50:49.522Z,14.10
2022-11-04T03:53:56.503Z,10.70
2022-11-04T03:57:03.690Z,14.10
2022-11-04T04:00:10.707Z,11.00
2022-11-04T04:03:17.695Z,9.90
2022-11-04T04:06:24.627Z,13.20
2022-11-04T04:09:32.059Z,10.80
2022-11-04T04:12:39.062Z,11.10
2022-11-04T04:15:45.967Z,12.90
2022-11-04T04:18:55.814Z,9.50
2022-11-04T04:21:54.688Z,9.30
2022-11-04T04:25:01.510Z,9.30
2022-11-04T04:28:09.126Z,11.60
2022-11-04T04:31:15.790Z,8.40
2022-11-04T04:34:22.971Z,6.20
2022-11-04T04:37:30.266Z,4.70
2022-11-04T04:40:36.782Z,6.00
2022-11-04T04:43:44.071Z,3.80
2022-11-04T04:46:51.065Z,4.70
2022-11-04T04:49:57.862Z,6.20
2022-11-04T04:53:04.896Z,2.80
2022-11-04T04:56:11.465Z,3.10
2022-11-04T04:59:18.347Z,3.80
2022-11-04T05:02:25.476Z,2.80
2022-11-04T05:05:32.477Z,4.20
2022-11-04T05:08:39.469Z,3.20
2022-11-04T05:11:46.443Z,2.10
2022-11-04T05:14:53.720Z,3.50
2022-11-04T05:18:00.768Z,2.70
2022-11-04T05:21:07.863Z,3.40
2022-11-04T05:24:15.202Z,2.80
2022-11-04T05:27:22.233Z,2.20
2022-11-04T05:30:29.267Z,2.30
2022-11-04T05:33:36.492Z,4.40
2022-11-04T05:36:43.556Z,1.80
2022-11-04T05:39:51.574Z,2.50
2022-11-04T05:42:59.666Z,2.70
2022-11-04T05:46:06.316Z,2.60
2022-11-04T05:49:13.440Z,2.60
2022-11-04T05:52:21.005Z,2.20
2022-11-04T05:55:27.773Z,3.70
2022-11-04T05:58:34.979Z,3.20
2022-11-04T06:01:42.061Z,2.60
2022-11-04T06:04:48.888Z,3.10
2022-11-04T06:07:56.081Z,2.70
2022-11-04T06:11:03.292Z,3.90
2022-11-04T06:14:14.661Z,2.60
2022-11-04T06:17:13.646Z,3.30
2022-11-04T06:20:20.900Z,3.60
2022-11-04T06:23:28.211Z,5.20
2022-11-04T06:26:35.367Z,4.00
2022-11-04T06:29:42.898Z,3.50
2022-11-04T06:32:50.110Z,3.10
2022-11-04T06:35:57.207Z,3.90
2022-11-04T06:39:05.205Z,5.80
2022-11-04T06:42:12.317Z,5.90
2022-11-04T06:45:19.578Z,4.40
2022-11-04T06:48:27.192Z,4.00
2022-11-04T06:51:34.102Z,6.50
2022-11-04T06:54:41.294Z,4.90
2022-11-04T06:57:48.971Z,4.20
2022-11-04T07:00:55.976Z,6.10
2022-11-04T07:04:03.525Z,4.20
2022-11-04T07:07:11.010Z,5.90
2022-11-04T07:10:17.793Z,5.00
2022-11-04T07:13:25.297Z,4.90
2022-11-04T07:16:32.606Z,7.60
2022-11-04T07:19:39.876Z,4.50
2022-11-04T07:22:47.466Z,6.00
2022-11-04T07:25:54.647Z,3.30
2022-11-04T07:29:01.908Z,6.30
2022-11-04T07:32:09.424Z,3.80
2022-11-04T07:35:16.636Z,5.70
2022-11-04T07:38:23.970Z,4.60
2022-11-04T07:41:31.421Z,6.20
2022-11-04T07:44:38.432Z,4.50
2022-11-04T07:47:45.558Z,3.40
2022-11-04T07:50:52.870Z,3.80
2022-11-04T07:54:00.343Z,3.20
2022-11-04T07:57:07.453Z,3.80
2022-11-04T08:00:14.674Z,6.80
2022-11-04T08:03:22.346Z,2.30
2022-11-04T08:06:29.486Z,2.80
2022-11-04T08:09:36.485Z,5.60
2022-11-04T08:12:44.060Z,3.90
2022-11-04T08:15:50.796Z,3.60
2022-11-04T08:18:58.201Z,3.60
2022-11-04T08:22:05.913Z,1.60
2022-11-04T08:25:13.439Z,3.80
2022-11-04T08:28:21.020Z,3.50
2022-11-04T08:31:28.521Z,4.60
2022-11-04T08:34:35.421Z,3.80
2022-11-04T08:37:42.812Z,2.90
2022-11-04T08:40:50.575Z,4.10
2022-11-04T08:43:58.723Z,4.60
2022-11-04T08:47:06.077Z,2.50
2022-11-04T08:50:13.125Z,4.10
2022-11-04T08:53:20.368Z,2.70
2022-11-04T08:56:27.957Z,3.30
2022-11-04T08:59:35.164Z,3.40
2022-11-04T09:02:42.557Z,3.70
2022-11-04T09:05:49.675Z,2.30
2022-11-04T09:08:57.445Z,5.20
2022-11-04T09:12:04.701Z,3.60
2022-11-04T09:15:12.675Z,3.20
2022-11-04T09:18:19.762Z,3.90
2022-11-04T09:21:26.993Z,4.20
2022-11-04T09:24:34.234Z,2.40
2022-11-04T09:27:41.424Z,3.10
2022-11-04T09:30:48.484Z,5.70
2022-11-04T09:33:56.228Z,3.50
2022-11-04T09:37:03.537Z,3.40
2022-11-04T09:40:10.476Z,2.90
2022-11-04T09:43:18.111Z,5.10
2022-11-04T09:46:25.355Z,6.10
2022-11-04T09:49:33.227Z,7.50
2022-11-04T09:52:40.361Z,5.80
2022-11-04T09:55:48.132Z,4.90
2022-11-04T09:58:55.519Z,3.00
2022-11-04T10:02:02.862Z,4.30
2022-11-04T10:05:10.335Z,4.00
2022-11-04T10:08:17.594Z,5.60
2022-11-04T10:11:25.183Z,2.80
2022-11-04T10:14:35.504Z,4.30
2022-11-04T10:17:32.057Z,9.40
2022-11-04T10:20:43.630Z,4.00
2022-11-04T10:23:40.607Z,5.30
2022-11-04T10:26:48.329Z,4.40
2022-11-04T10:29:55.163Z,5.00
2022-11-04T10:33:02.914Z,3.70
2022-11-04T10:36:10.199Z,4.30
2022-11-04T10:39:17.482Z,5.00
2022-11-04T10:42:25.092Z,4.70
2022-11-04T10:45:32.365Z,5.30
2022-11-04T10:48:39.494Z,5.60
2022-11-04T10:51:46.336Z,4.50
2022-11-04T10:54:53.995Z,4.20
2022-11-04T10:58:01.086Z,3.20
2022-11-04T11:01:12.577Z,8.90
2022-11-04T11:04:10.798Z,5.20
2022-11-04T11:07:17.708Z,8.10
2022-11-04T11:10:25.170Z,5.40
2022-11-04T11:13:32.651Z,6.50
2022-11-04T11:16:39.461Z,8.40
2022-11-04T11:19:47.102Z,5.00
2022-11-04T11:22:54.553Z,5.40
2022-11-04T11:26:01.403Z,8.40
2022-11-04T11:29:08.548Z,3.20
2022-11-04T11:32:15.646Z,7.70
2022-11-04T11:35:22.776Z,4.70
2022-11-04T11:38:29.795Z,4.00
2022-11-04T11:41:42.567Z,5.80
2022-11-04T11:44:39.898Z,4.10
2022-11-04T11:47:47.130Z,4.70
2022-11-04T11:50:54.380Z,4.40
2022-11-04T11:54:01.101Z,5.20
2022-11-04T11:57:13.920Z,7.90
2022-11-04T12:03:16.352Z,5.10
2022-11-04T12:06:24.808Z,5.00
2022-11-04T12:09:34.464Z,3.30
2022-11-04T12:12:41.853Z,5.90
2022-11-04T12:15:49.307Z,5.60
2022-11-04T12:18:56.534Z,3.60
2022-11-04T12:22:03.157Z,8.50
2022-11-04T12:25:10.803Z,4.30
2022-11-04T12:28:17.809Z,4.70
2022-11-04T12:31:24.819Z,4.80
2022-11-04T12:34:31.996Z,4.00
2022-11-04T12:37:38.922Z,5.00
2022-11-04T12:41:04.981Z,4.80
2022-11-04T12:43:50.253Z,5.10
2022-11-04T12:46:57.515Z,4.90
2022-11-04T12:50:04.546Z,4.10
2022-11-04T12:53:11.842Z,6.30
2022-11-04T12:56:19.536Z,4.60
2022-11-04T12:59:26.176Z,6.00
2022-11-04T13:02:33.450Z,8.20
2022-11-04T13:05:40.838Z,6.80
2022-11-04T13:08:47.490Z,5.60
2022-11-04T13:11:54.920Z,5.90
2022-11-04T13:15:01.482Z,8.20
2022-11-04T13:18:08.831Z,5.00
2022-11-04T13:21:16.271Z,4.40
2022-11-04T13:24:23.282Z,7.20
2022-11-04T13:27:30.232Z,6.80
2022-11-04T13:30:37.292Z,5.30
2022-11-04T13:33:44.234Z,4.50
2022-11-04T13:36:51.695Z,5.00
2022-11-04T13:39:58.668Z,4.80
2022-11-04T13:43:05.825Z,4.40
2022-11-04T13:46:12.779Z,4.80
2022-11-04T13:49:19.719Z,4.70
2022-11-04T13:52:26.927Z,5.50
2022-11-04T13:55:33.670Z,8.20
2022-11-04T13:58:46.064Z,3.70
2022-11-04T14:01:43.919Z,4.80
2022-11-04T14:04:50.693Z,5.20
2022-11-04T14:07:58.134Z,5.70
2022-11-04T14:11:04.884Z,2.70
2022-11-04T14:14:12.782Z,2.60
2022-11-04T14:17:20.377Z,4.60
2022-11-04T14:20:27.145Z,3.30
2022-11-04T14:23:34.719Z,3.40
2022-11-04T14:26:41.849Z,3.30
2022-11-04T14:29:49.040Z,4.10
2022-11-04T14:32:56.230Z,4.10
2022-11-04T14:36:02.865Z,3.60
2022-11-04T14:39:09.891Z,2.20
2022-11-04T14:42:17.804Z,2.80
2022-11-04T14:45:25.542Z,4.30
2022-11-04T14:48:32.496Z,2.50
2022-11-04T14:51:40.009Z,6.40
2022-11-04T14:54:49.069Z,2.70
2022-11-04T14:57:56.598Z,2.90
2022-11-04T15:01:03.723Z,5.00
2022-11-04T15:04:13.009Z,7.20
2022-11-04T15:07:20.619Z,2.70
2022-11-04T15:10:27.699Z,4.00
2022-11-04T15:13:34.610Z,6.80
2022-11-04T15:16:42.062Z,6.50
2022-11-04T15:19:48.764Z,6.90
2022-11-04T15:22:56.033Z,3.60
2022-11-04T15:26:03.488Z,4.40
2022-11-04T15:29:10.411Z,5.00
2022-11-04T15:32:17.376Z,5.80
2022-11-04T15:35:25.255Z,5.50
2022-11-04T15:38:32.378Z,4.20
2022-11-04T15:41:39.847Z,5.30
2022-11-04T15:44:47.053Z,7.80
2022-11-04T15:47:53.569Z,7.70
2022-11-04T15:51:00.505Z,4.90
2022-11-04T15:54:07.709Z,5.10
2022-11-04T15:57:14.310Z,6.80
2022-11-04T16:00:21.701Z,5.70
2022-11-04T16:03:28.541Z,8.30
2022-11-04T16:06:35.392Z,6.50
2022-11-04T16:09:42.703Z,6.60
2022-11-04T16:12:49.754Z,5.70
2022-11-04T16:15:56.645Z,5.10
2022-11-04T16:19:03.535Z,7.20
2022-11-04T16:22:10.772Z,6.00
2022-11-04T16:25:17.848Z,4.70
2022-11-04T16:28:24.697Z,6.20
2022-11-04T16:31:32.038Z,5.70
2022-11-04T16:34:39.168Z,10.00
2022-11-04T16:37:45.789Z,10.80
2022-11-04T16:40:53.093Z,8.10
2022-11-04T16:43:59.672Z,7.90
2022-11-04T16:47:06.649Z,7.90
2022-11-04T16:50:14.171Z,7.60
2022-11-04T16:53:21.052Z,9.80
2022-11-04T16:56:29.163Z,7.20
2022-11-04T16:59:36.223Z,6.30
2022-11-04T17:02:43.267Z,7.20
2022-11-04T17:05:50.546Z,10.10
2022-11-04T17:08:57.597Z,8.70
2022-11-04T17:12:05.014Z,6.00
2022-11-04T17:15:11.965Z,6.40
2022-11-04T17:18:18.889Z,7.00
2022-11-04T17:21:25.928Z,9.10
2022-11-04T17:24:32.510Z,8.50
2022-11-04T17:27:40.001Z,7.30
2022-11-04T17:30:47.950Z,5.30
2022-11-04T17:33:54.546Z,10.20
2022-11-04T17:37:01.923Z,8.00
2022-11-04T17:40:08.924Z,9.90
2022-11-04T17:43:16.128Z,8.00
2022-11-04T17:46:23.272Z,9.20
2022-11-04T17:49:30.255Z,8.30
2022-11-04T17:52:37.184Z,8.50
2022-11-04T17:55:44.534Z,8.40
2022-11-04T17:58:51.069Z,8.50
2022-11-04T18:01:58.411Z,8.00
2022-11-04T18:05:05.720Z,8.80
2022-11-04T18:08:12.329Z,9.40
2022-11-04T18:11:19.607Z,10.50
2022-11-04T18:14:26.419Z,8.90
2022-11-04T18:17:33.000Z,12.60
2022-11-04T18:20:40.112Z,8.30
2022-11-04T18:23:47.000Z,7.90
2022-11-04T18:26:53.954Z,13.70
2022-11-04T18:30:01.126Z,9.00
2022-11-04T18:33:08.338Z,8.80
2022-11-04T18:36:15.819Z,10.50
2022-11-04T18:39:22.815Z,9.70
2022-11-04T18:42:30.135Z,9.10
2022-11-04T18:45:37.107Z,7.20
2022-11-04T18:48:44.128Z,9.50
2022-11-04T18:51:51.430Z,9.70
2022-11-04T18:54:58.429Z,9.20
2022-11-04T18:58:05.489Z,8.90
2022-11-04T19:01:12.767Z,8.90
2022-11-04T19:04:19.681Z,8.30
2022-11-04T19:07:26.772Z,7.80
2022-11-04T19:10:35.997Z,10.00
2022-11-04T19:13:37.815Z,10.30
2022-11-04T19:16:45.124Z,9.60
2022-11-04T19:19:52.103Z,11.80
2022-11-04T19:22:59.215Z,9.20
2022-11-04T19:26:06.526Z,12.90
2022-11-04T19:29:13.144Z,10.60
2022-11-04T19:32:20.506Z,9.30
2022-11-04T19:35:27.760Z,11.30
2022-11-04T19:38:34.349Z,9.60
2022-11-04T19:41:41.779Z,10.60
2022-11-04T19:44:49.209Z,12.50
2022-11-04T19:47:55.830Z,11.80
2022-11-04T19:51:03.151Z,11.80
2022-11-04T19:54:10.103Z,13.80
2022-11-04T19:57:16.977Z,11.00
2022-11-04T20:00:24.492Z,11.20
2022-11-04T20:03:32.174Z,14.30
2022-11-04T20:06:39.604Z,13.00
2022-11-04T20:09:46.807Z,13.40
2022-11-04T20:12:53.624Z,17.00
2022-11-04T20:16:00.846Z,14.30
2022-11-04T20:19:07.535Z,17.10
2022-11-04T20:22:14.947Z,19.70
2022-11-04T20:25:22.382Z,19.60
2022-11-04T20:28:29.439Z,18.40
2022-11-04T20:31:36.406Z,16.30
2022-11-04T20:34:43.751Z,15.70
2022-11-04T20:37:50.762Z,19.60
2022-11-04T20:40:57.755Z,21.40
2022-11-04T20:44:04.732Z,20.00
2022-11-04T20:47:12.042Z,16.70
2022-11-04T20:50:19.064Z,14.90
2022-11-04T20:53:25.775Z,15.30
2022-11-04T20:56:33.183Z,14.90
2022-11-04T20:59:40.238Z,15.30
2022-11-04T21:02:47.156Z,15.10
2022-11-04T21:05:54.337Z,18.10
2022-11-04T21:09:00.967Z,14.60
2022-11-04T21:12:08.587Z,15.40
2022-11-04T21:15:15.980Z,14.50
2022-11-04T21:18:22.550Z,16.40
2022-11-04T21:21:29.668Z,21.40
2022-11-04T21:24:39.406Z,17.60
2022-11-04T21:27:46.089Z,15.40
2022-11-04T21:30:53.275Z,18.00
2022-11-04T21:34:00.280Z,20.70
2022-11-04T21:37:07.195Z,18.70
2022-11-04T21:40:13.823Z,17.10
2022-11-04T21:43:20.835Z,19.40
2022-11-04T21:46:28.386Z,18.90
2022-11-04T21:49:35.938Z,21.10
2022-11-04T21:52:43.427Z,20.40
2022-11-04T21:55:50.239Z,18.10
2022-11-04T21:58:57.226Z,23.70
2022-11-04T22:02:04.524Z,23.60
2022-11-04T22:05:11.517Z,22.00
2022-11-04T22:08:18.123Z,23.70
2022-11-04T22:11:25.479Z,24.40
2022-11-04T22:14:32.470Z,24.30
2022-11-04T22:17:39.091Z,23.40
2022-11-04T22:20:46.371Z,20.60
2022-11-04T22:23:52.953Z,22.10
2022-11-04T22:27:00.275Z,23.70
2022-11-04T22:30:07.527Z,26.40
2022-11-04T22:33:14.063Z,20.10
2022-11-04T22:36:21.664Z,23.10
2022-11-04T22:39:28.802Z,22.80
2022-11-04T22:42:35.336Z,26.20
2022-11-04T22:45:42.495Z,23.70
2022-11-04T22:48:49.762Z,25.20
2022-11-04T22:51:56.378Z,24.60
2022-11-04T22:55:03.740Z,25.50
2022-11-04T22:58:10.708Z,28.40
2022-11-04T23:01:17.700Z,28.50
2022-11-04T23:04:25.189Z,30.00
2022-11-04T23:07:32.201Z,32.90
2022-11-04T23:10:39.191Z,28.80
2022-11-04T23:13:46.181Z,27.00
2022-11-04T23:16:53.571Z,23.90
2022-11-04T23:20:00.416Z,26.10
2022-11-04T23:23:07.565Z,22.90
2022-11-04T23:26:14.974Z,22.30
2022-11-04T23:29:21.932Z,24.10
2022-11-04T23:32:28.484Z,20.20
2022-11-04T23:35:35.724Z,17.70
2022-11-04T23:38:46.383Z,20.40
2022-11-04T23:41:45.085Z,21.20
2022-11-04T23:44:52.315Z,17.00
2022-11-04T23:47:58.857Z,22.90
2022-11-04T23:51:06.018Z,22.40
2022-11-04T23:54:12.859Z,19.80
2022-11-04T23:57:19.780Z,20.40
